Time;durP1;ratioP1;P1;durP2;ratioP2;P2;SDS_P1;SDS_P2;PMS_P1;PMS_P2;Temp;Humidity;BMP_temperature;BMP_pressure;BME280_temperature;BME280_humidity;BME280_pressure;Samples;Min_cycle;Max_cycle;Signal;HPM_P1;HPM_P2
2022/04/05 00:02:16;;;;;;;;;13.00;13.00;;;;;9.26;64.90;100534.44;5056931;28;45292;-65
2022/04/05 00:04:42;;;;;;;;;20.00;16.50;;;;;9.26;65.20;100532.69;5055716;28;45451;-67
2022/04/05 00:07:07;;;;;;;;;19.25;17.50;;;;;9.28;65.13;100527.38;5038503;28;47162;-66
2022/04/05 00:09:33;;;;;;;;;17.25;17.25;;;;;9.29;65.43;100532.59;5056546;28;45326;-66
2022/04/05 00:11:58;;;;;;;;;21.50;19.50;;;;;9.29;65.62;100529.09;5038723;28;45439;-67
2022/04/05 00:14:23;;;;;;;;;16.00;16.00;;;;;9.28;65.47;100530.88;5057165;28;45286;-66
2022/04/05 00:16:49;;;;;;;;;18.00;16.25;;;;;9.27;66.20;100531.78;5056344;28;45428;-66
2022/04/05 00:19:14;;;;;;;;;18.75;17.75;;;;;9.25;66.33;100535.38;5038489;28;45317;-66
2022/04/05 00:21:40;;;;;;;;;16.00;15.75;;;;;9.24;66.50;100531.03;5056900;28;45317;-67
2022/04/05 00:24:05;;;;;;;;;16.75;15.25;;;;;9.24;66.52;100531.91;5038759;28;45578;-66
2022/04/05 00:26:31;;;;;;;;;13.25;13.25;;;;;9.25;66.78;100527.50;5038480;28;48218;-68
2022/04/05 00:28:57;;;;;;;;;19.25;16.50;;;;;9.26;66.85;100529.19;5056442;28;45322;-65
2022/04/05 00:31:22;;;;;;;;;18.25;18.25;;;;;9.23;66.99;100513.56;5056690;28;45222;-67
2022/04/05 00:33:47;;;;;;;;;17.25;17.25;;;;;9.20;67.23;100525.03;5056912;28;45353;-66
2022/04/05 00:36:13;;;;;;;;;15.75;15.00;;;;;9.20;67.07;100522.41;5056249;28;45832;-65
2022/04/05 00:38:38;;;;;;;;;17.00;14.25;;;;;9.23;67.56;100534.56;5038307;28;45231;-66
2022/04/05 00:41:03;;;;;;;;;15.50;15.50;;;;;9.25;67.43;100523.13;5056353;28;45273;-66
2022/04/05 00:43:29;;;;;;;;;17.25;17.25;;;;;9.29;67.58;100531.72;5056578;28;45600;-68
2022/04/05 00:45:55;;;;;;;;;17.00;17.00;;;;;9.30;67.64;100531.69;5056464;28;46697;-65
2022/04/05 00:48:31;;;;;;;;;14.75;14.75;;;;;9.30;68.29;100520.31;5054919;28;45327;-66
2022/04/05 00:50:56;;;;;;;;;16.00;14.25;;;;;9.31;68.32;100520.28;5056642;28;45345;-65
2022/04/05 00:53:24;;;;;;;;;17.25;17.25;;;;;9.31;68.50;100516.78;5056403;28;45647;-64
2022/04/05 00:55:53;;;;;;;;;16.25;15.00;;;;;9.34;68.42;100528.03;5055986;28;46185;-65
2022/04/05 00:58:20;;;;;;;;;17.00;15.50;;;;;9.35;68.22;100528.88;5055924;28;45248;-66
2022/04/05 01:00:48;;;;;;;;;19.00;19.00;;;;;9.37;68.56;100520.97;5055616;28;45521;-67
2022/04/05 01:03:14;;;;;;;;;13.75;13.00;;;;;9.37;68.91;100526.22;5056235;28;45506;-66
2022/04/05 01:05:40;;;;;;;;;20.00;15.75;;;;;9.38;68.82;100518.25;5055806;28;45438;-67
2022/04/05 01:08:08;;;;;;;;;17.25;16.75;;;;;9.37;68.93;100516.56;5055861;28;45396;-67
2022/04/05 01:10:33;;;;;;;;;19.00;15.25;;;;;9.37;69.34;100521.78;5038025;28;45260;-67
2022/04/05 01:12:59;;;;;;;;;16.25;14.50;;;;;9.37;69.53;100520.97;5037788;28;45352;-67
2022/04/05 01:15:24;;;;;;;;;19.50;13.75;;;;;9.36;69.92;100522.72;5055515;28;45437;-66
2022/04/05 01:17:51;;;;;;;;;18.00;16.00;;;;;9.37;70.18;100515.72;5055755;28;45351;-66
2022/04/05 01:20:17;;;;;;;;;14.75;14.75;;;;;9.34;70.02;100516.66;5037619;28;45362;-66
2022/04/05 01:22:49;;;;;;;;;15.50;14.75;;;;;9.33;70.59;100510.56;5037714;28;45563;-66
2022/04/05 01:25:17;;;;;;;;;15.00;15.00;;;;;9.31;71.06;100512.41;5037161;28;47849;-65
2022/04/05 01:27:42;;;;;;;;;15.25;15.25;;;;;9.31;70.71;100503.66;5055470;28;45394;-65
2022/04/05 01:30:08;;;;;;;;;17.00;17.00;;;;;9.31;71.30;100504.53;5055662;28;45470;-65
2022/04/05 01:32:34;;;;;;;;;14.75;14.50;;;;;9.31;71.80;100503.66;5055825;28;45470;-67
2022/04/05 01:35:00;;;;;;;;;14.50;14.50;;;;;9.32;72.12;100500.09;5055464;28;46283;-66
2022/04/05 01:37:25;;;;;;;;;17.25;15.75;;;;;9.30;71.96;100500.19;5021036;28;45829;-66
2022/04/05 01:39:51;;;;;;;;;19.00;17.75;;;;;9.32;72.28;100493.09;5055401;28;45271;-66
2022/04/05 01:42:17;;;;;;;;;11.75;10.75;;;;;9.34;72.39;100496.53;5055626;28;45505;-65
2022/04/05 01:44:43;;;;;;;;;16.50;16.50;;;;;9.34;72.46;100485.16;5055062;28;45415;-67
2022/04/05 01:47:10;;;;;;;;;13.75;13.25;;;;;9.34;72.40;100487.78;5055302;28;45259;-67
2022/04/05 01:49:37;;;;;;;;;13.00;13.00;;;;;9.33;72.62;100484.31;5055387;28;45422;-66
2022/04/05 01:52:05;;;;;;;;;14.75;13.50;;;;;9.34;72.51;100485.16;5055452;28;45334;-69
2022/04/05 01:54:30;;;;;;;;;17.50;16.50;;;;;9.34;72.34;100479.91;5055410;28;46034;-66
2022/04/05 01:56:56;;;;;;;;;16.25;16.00;;;;;9.35;72.56;100486.88;5055525;28;45369;-67
2022/04/05 01:59:24;;;;;;;;;13.50;12.25;;;;;9.34;72.72;100482.53;5037289;28;45485;-67
2022/04/05 02:01:50;;;;;;;;;14.00;13.25;;;;;9.35;72.76;100492.13;5055463;28;45291;-67
2022/04/05 02:04:16;;;;;;;;;15.50;15.50;;;;;9.36;72.73;100483.34;5055461;28;45804;-66
2022/04/05 02:06:43;;;;;;;;;18.50;17.25;;;;;9.35;73.02;100481.63;5055242;28;45324;-67
2022/04/05 02:09:10;;;;;;;;;14.50;14.50;;;;;9.36;72.78;100483.34;5055218;28;45490;-66
2022/04/05 02:11:35;;;;;;;;;20.00;19.50;;;;;9.34;73.15;100479.91;5055458;28;45525;-68
2022/04/05 02:14:01;;;;;;;;;19.50;19.50;;;;;9.34;73.68;100477.28;5055384;28;45348;-66
2022/04/05 02:16:26;;;;;;;;;18.75;18.75;;;;;9.33;73.73;100476.44;5055402;28;45223;-66
2022/04/05 02:18:53;;;;;;;;;18.25;17.00;;;;;9.34;74.09;100479.91;5055244;28;45372;-67
2022/04/05 02:21:18;;;;;;;;;18.50;17.00;;;;;9.32;74.14;100484.34;5055299;28;45525;-66
2022/04/05 02:23:43;;;;;;;;;18.50;16.25;;;;;9.31;74.21;100485.28;5054855;28;46014;-67
2022/04/05 02:26:10;;;;;;;;;18.25;17.75;;;;;9.31;74.44;100477.41;5054895;28;45233;-67
2022/04/05 02:28:35;;;;;;;;;17.50;16.50;;;;;9.27;75.06;100484.53;5056845;28;45230;-66
2022/04/05 02:31:01;;;;;;;;;14.25;14.25;;;;;9.24;75.31;100483.78;5058836;28;45612;-67
2022/04/05 02:33:27;;;;;;;;;19.00;16.50;;;;;9.23;75.35;100484.69;5058420;28;45467;-68
2022/04/05 02:35:52;;;;;;;;;19.50;19.50;;;;;9.22;75.87;100483.84;5058202;28;45314;-67
2022/04/05 02:38:18;;;;;;;;;17.00;17.00;;;;;9.20;75.42;100473.41;5058228;28;45433;-67
2022/04/05 02:40:43;;;;;;;;;18.25;15.00;;;;;9.21;75.73;100476.91;5058398;28;45555;-66
2022/04/05 02:43:09;;;;;;;;;13.50;13.50;;;;;9.19;75.76;100474.31;5058116;28;46702;-67
2022/04/05 02:45:34;;;;;;;;;18.00;15.50;;;;;9.17;75.67;100470.88;5057944;28;45410;-67
2022/04/05 02:48:00;;;;;;;;;16.50;16.50;;;;;9.14;76.12;100463.13;5058418;28;45302;-68
2022/04/05 02:50:25;;;;;;;;;16.50;15.00;;;;;9.21;76.01;100459.38;5058413;28;45571;-68
2022/04/05 02:52:52;;;;;;;;;16.75;14.75;;;;;9.21;75.90;100462.00;5058074;28;47332;-68
2022/04/05 02:55:17;;;;;;;;;17.25;15.00;;;;;9.22;75.96;100462.84;5039878;28;46026;-68
2022/04/05 02:57:45;;;;;;;;;19.25;17.75;;;;;9.23;76.23;100464.56;5040093;28;45332;-68
2022/04/05 03:00:12;;;;;;;;;18.25;18.25;;;;;9.24;76.19;100460.16;5058030;28;45355;-68
2022/04/05 03:02:38;;;;;;;;;19.25;19.25;;;;;9.23;76.50;100469.81;5057893;28;46282;-68
2022/04/05 03:05:06;;;;;;;;;18.00;15.00;;;;;9.24;76.79;100462.78;5039792;28;45363;-69
2022/04/05 03:07:32;;;;;;;;;17.75;16.75;;;;;9.24;76.82;100463.66;5058254;28;45423;-69
2022/04/05 03:09:57;;;;;;;;;14.50;14.50;;;;;9.21;77.00;100462.00;5058315;28;45328;-68
2022/04/05 03:12:23;;;;;;;;;17.25;15.75;;;;;9.21;77.31;100463.78;5058167;28;45289;-68
2022/04/05 03:14:48;;;;;;;;;20.25;18.50;;;;;9.17;77.59;100462.16;5057942;28;45300;-68
2022/04/05 03:17:13;;;;;;;;;16.75;15.75;;;;;9.16;77.73;100460.47;5057991;28;45314;-68
2022/04/05 03:19:39;;;;;;;;;16.50;15.00;;;;;9.11;78.31;100447.50;5058145;28;45399;-67
2022/04/05 03:22:11;;;;;;;;;16.00;16.00;;;;;9.05;78.77;100443.34;5057947;28;45490;-69
2022/04/05 03:24:37;;;;;;;;;18.25;17.50;;;;;9.10;78.65;100452.81;5057603;28;45219;-69
2022/04/05 03:27:03;;;;;;;;;16.00;15.75;;;;;9.09;79.09;100449.31;5058015;28;45409;-69
2022/04/05 03:29:29;;;;;;;;;20.25;18.00;;;;;9.08;79.10;100447.59;5057846;28;45561;-69
2022/04/05 03:31:54;;;;;;;;;15.00;15.00;;;;;9.09;79.12;100456.34;5057450;28;46080;-69
2022/04/05 03:34:19;;;;;;;;;18.00;16.00;;;;;9.08;79.34;100450.22;5057370;28;48681;-67
2022/04/05 03:36:45;;;;;;;;;18.00;17.00;;;;;9.06;79.79;100442.44;5057573;28;45319;-69
2022/04/05 03:39:13;;;;;;;;;18.25;16.75;;;;;9.04;79.96;100441.63;5057496;28;45513;-67
2022/04/05 03:41:42;;;;;;;;;17.25;17.25;;;;;9.04;79.88;100446.88;5057324;28;47194;-68
2022/04/05 03:44:08;;;;;;;;;17.00;17.00;;;;;9.01;79.93;100444.34;5057301;28;45398;-68
2022/04/05 03:46:33;;;;;;;;;16.00;15.50;;;;;8.99;80.32;100434.81;5057687;28;45266;-68
2022/04/05 03:48:59;;;;;;;;;16.75;15.50;;;;;8.98;80.64;100447.06;5022622;28;45317;-68
2022/04/05 03:51:24;;;;;;;;;16.75;16.75;;;;;8.95;80.34;100434.06;5056159;28;46022;-69
2022/04/05 03:53:49;;;;;;;;;20.50;18.00;;;;;8.95;81.03;100426.19;5056863;28;45335;-70
2022/04/05 03:56:15;;;;;;;;;17.50;16.50;;;;;8.97;80.96;100428.75;5056774;28;45295;-70
2022/04/05 03:58:40;;;;;;;;;16.00;15.25;;;;;8.96;80.97;100429.69;5057216;28;45302;-69
2022/04/05 04:01:06;;;;;;;;;16.00;15.00;;;;;8.94;80.77;100428.88;5056925;28;45793;-68
2022/04/05 04:03:32;;;;;;;;;15.00;13.50;;;;;8.96;80.92;100434.94;5057191;28;45421;-68
2022/04/05 04:05:59;;;;;;;;;20.25;18.25;;;;;8.96;81.49;100427.91;5056848;28;45327;-69
2022/04/05 04:08:25;;;;;;;;;18.00;18.00;;;;;8.97;81.21;100440.09;5057449;28;45311;-68
2022/04/05 04:10:51;;;;;;;;;18.25;16.25;;;;;8.98;81.81;100440.97;5056830;28;46561;-68
2022/04/05 04:13:16;;;;;;;;;16.25;15.25;;;;;8.96;81.85;100440.16;5057203;28;45865;-68
2022/04/05 04:15:42;;;;;;;;;16.00;15.50;;;;;8.89;82.46;100432.53;5056710;28;45263;-70
2022/04/05 04:18:07;;;;;;;;;17.00;15.75;;;;;8.85;82.40;100435.28;5038871;28;45412;-69
2022/04/05 04:20:33;;;;;;;;;15.50;15.25;;;;;8.82;83.01;100436.28;5056702;28;45497;-70
2022/04/05 04:22:58;;;;;;;;;19.00;16.50;;;;;8.81;83.51;100428.44;5056851;28;45372;-69
2022/04/05 04:25:24;;;;;;;;;17.50;16.00;;;;;8.81;83.41;100423.19;5056774;28;45388;-68
2022/04/05 04:27:49;;;;;;;;;18.75;16.00;;;;;8.78;83.43;100429.44;5056516;28;45474;-67
2022/04/05 04:30:15;;;;;;;;;13.75;13.75;;;;;8.81;83.97;100425.81;5055826;28;45985;-69
2022/04/05 04:32:40;;;;;;;;;14.50;14.25;;;;;8.77;84.01;100418.06;5056018;28;45403;-69
2022/04/05 04:35:07;;;;;;;;;22.25;18.75;;;;;8.80;84.30;100431.97;5056826;28;45555;-68
2022/04/05 04:37:33;;;;;;;;;18.00;18.00;;;;;8.82;84.65;100424.91;5056429;28;45560;-68
2022/04/05 04:39:59;;;;;;;;;16.25;15.75;;;;;8.80;84.91;100419.72;5055526;28;45554;-70
2022/04/05 04:42:24;;;;;;;;;17.50;15.00;;;;;8.82;84.87;100417.91;5056292;28;45317;-67
2022/04/05 04:44:50;;;;;;;;;20.25;19.75;;;;;8.84;84.80;100423.97;5056549;28;45449;-68
2022/04/05 04:47:17;;;;;;;;;15.25;15.25;;;;;8.85;84.55;100425.69;5056277;28;45525;-69
2022/04/05 04:49:42;;;;;;;;;15.75;14.00;;;;;8.88;84.88;100420.31;5055587;28;46364;-67
2022/04/05 04:52:07;;;;;;;;;14.00;14.00;;;;;8.88;85.01;100415.06;5041586;28;45479;-67
2022/04/05 04:54:33;;;;;;;;;18.75;18.50;;;;;8.82;85.22;100407.41;5055724;28;45207;-68
2022/04/05 04:56:58;;;;;;;;;17.25;17.25;;;;;8.87;84.93;100417.72;5054622;28;45254;-69
2022/04/05 04:59:23;;;;;;;;;17.50;16.25;;;;;8.85;85.38;100420.44;5055247;28;46317;-70
2022/04/05 05:01:49;;;;;;;;;15.50;15.50;;;;;8.85;85.09;100411.69;5055801;28;45939;-70
2022/04/05 05:04:14;;;;;;;;;20.50;18.00;;;;;8.85;85.74;100409.06;5036600;28;45366;-68
2022/04/05 05:06:39;;;;;;;;;20.50;19.25;;;;;8.89;85.71;100414.16;5056541;28;45667;-68
2022/04/05 05:09:05;;;;;;;;;17.00;16.75;;;;;8.92;85.90;100415.81;5055548;28;45333;-68
2022/04/05 05:11:31;;;;;;;;;18.75;18.75;;;;;8.94;85.83;100415.75;5055548;28;45345;-68
2022/04/05 05:13:56;;;;;;;;;18.75;16.75;;;;;8.95;85.58;100413.06;5055402;28;45368;-70
2022/04/05 05:16:21;;;;;;;;;16.00;16.00;;;;;8.97;85.44;100416.50;5056936;28;45602;-68
2022/04/05 05:18:47;;;;;;;;;18.50;18.50;;;;;8.97;86.08;100408.63;5038357;28;50609;-68
2022/04/05 05:21:12;;;;;;;;;17.50;17.50;;;;;8.97;85.89;100411.25;5054884;28;45368;-69
2022/04/05 05:23:37;;;;;;;;;17.75;15.50;;;;;9.00;86.10;100413.75;5055190;28;45483;-70
2022/04/05 05:26:03;;;;;;;;;14.00;14.00;;;;;8.98;85.88;100412.13;5055664;28;45647;-70
2022/04/05 05:28:28;;;;;;;;;17.00;17.00;;;;;8.99;85.46;100416.44;5055206;28;46012;-69
2022/04/05 05:30:54;;;;;;;;;20.50;18.75;;;;;8.97;85.89;100419.13;5055463;28;45414;-69
2022/04/05 05:33:19;;;;;;;;;21.25;17.50;;;;;8.97;86.04;100419.13;5054916;28;45476;-70
2022/04/05 05:35:45;;;;;;;;;16.25;15.75;;;;;8.97;86.04;100413.03;5055630;28;45373;-69
2022/04/05 05:38:10;;;;;;;;;17.50;17.50;;;;;8.97;86.34;100418.28;5055226;28;45997;-68
2022/04/05 05:40:35;;;;;;;;;15.25;15.25;;;;;8.97;86.19;100419.13;5054405;28;45485;-68
2022/04/05 05:43:04;;;;;;;;;18.75;18.75;;;;;8.98;86.36;100409.50;5054676;28;45457;-69
2022/04/05 05:45:32;;;;;;;;;17.00;17.00;;;;;8.97;86.51;100413.88;5055616;28;45457;-69
2022/04/05 05:47:57;;;;;;;;;17.00;16.00;;;;;8.98;86.33;100406.88;5053389;28;47245;-68
2022/04/05 05:50:24;;;;;;;;;19.75;18.25;;;;;9.00;86.66;100412.91;5045402;28;45432;-68
2022/04/05 05:52:49;;;;;;;;;17.25;16.50;;;;;9.03;86.65;100412.81;5052224;28;45288;-69
2022/04/05 05:55:17;;;;;;;;;19.00;16.00;;;;;9.04;86.08;100415.38;5054473;28;45523;-69
2022/04/05 05:57:43;;;;;;;;;17.50;15.00;;;;;9.04;86.10;100422.38;5054477;28;46241;-68
2022/04/05 06:00:13;;;;;;;;;16.50;15.50;;;;;9.04;86.37;100427.63;5055231;28;45306;-68
2022/04/05 06:02:39;;;;;;;;;18.00;18.00;;;;;9.06;86.56;100424.06;5056560;28;45554;-69
2022/04/05 06:05:06;;;;;;;;;19.50;19.50;;;;;9.09;86.35;100423.06;5057864;28;45268;-68
2022/04/05 06:07:33;;;;;;;;;18.75;15.50;;;;;9.12;86.20;100427.38;5054294;28;46403;-68
2022/04/05 06:09:59;;;;;;;;;16.25;14.75;;;;;9.13;85.81;100422.03;5059944;28;45306;-70
2022/04/05 06:12:24;;;;;;;;;14.25;14.25;;;;;9.12;86.08;100422.97;5058572;28;45380;-68
2022/04/05 06:14:49;;;;;;;;;16.25;15.50;;;;;9.15;86.26;100430.72;5057841;28;45317;-69
2022/04/05 06:17:15;;;;;;;;;16.25;16.00;;;;;9.17;86.09;100436.78;5057870;28;45412;-70
2022/04/05 06:19:40;;;;;;;;;18.50;17.50;;;;;9.20;86.15;100430.56;5058675;28;48369;-69
2022/04/05 06:22:05;;;;;;;;;13.25;12.25;;;;;9.21;86.05;100446.25;5057994;28;45334;-68
2022/04/05 06:24:31;;;;;;;;;19.00;19.00;;;;;9.23;85.80;100440.94;5058040;28;45241;-69
2022/04/05 06:26:56;;;;;;;;;18.75;18.75;;;;;9.25;85.94;100444.38;5057650;28;45373;-69
2022/04/05 06:29:22;;;;;;;;;16.75;14.75;;;;;9.28;86.02;100451.25;5058335;28;45386;-69
2022/04/05 06:31:47;;;;;;;;;14.75;14.75;;;;;9.29;86.07;100451.22;5056744;28;45329;-69
2022/04/05 06:34:14;;;;;;;;;17.25;16.00;;;;;9.31;86.41;100451.16;5058398;28;45508;-69
2022/04/05 06:36:40;;;;;;;;;13.75;13.75;;;;;9.30;86.30;100462.56;5040931;28;47225;-70
2022/04/05 06:39:06;;;;;;;;;19.00;17.50;;;;;9.32;86.61;100461.59;5037854;28;45456;-69
2022/04/05 06:41:32;;;;;;;;;20.50;20.25;;;;;9.35;86.62;100463.25;5041114;28;45473;-69
2022/04/05 06:43:57;;;;;;;;;17.50;17.50;;;;;9.37;86.54;100455.34;5057355;28;45264;-69
2022/04/05 06:46:22;;;;;;;;;15.25;15.25;;;;;9.39;86.77;100456.97;5056688;28;46203;-66
2022/04/05 06:48:48;;;;;;;;;17.00;17.00;;;;;9.44;86.95;100460.28;5057014;28;45278;-68
2022/04/05 06:51:13;;;;;;;;;23.25;23.25;;;;;9.47;87.36;100460.16;5058204;28;45316;-68
2022/04/05 06:53:39;;;;;;;;;18.75;16.25;;;;;9.48;87.17;100451.38;5057423;28;45165;-66
2022/04/05 06:56:06;;;;;;;;;18.50;16.50;;;;;9.49;87.24;100449.63;5057595;28;46236;-67
2022/04/05 06:58:32;;;;;;;;;16.50;16.50;;;;;9.48;87.61;100455.78;5057025;28;45384;-67
2022/04/05 07:00:57;;;;;;;;;16.50;14.00;;;;;9.47;87.73;100447.03;5056816;28;45287;-67
2022/04/05 07:03:23;;;;;;;;;18.50;14.25;;;;;9.49;87.59;100453.09;5057343;28;45504;-67
2022/04/05 07:05:48;;;;;;;;;13.50;13.50;;;;;9.52;87.82;100451.25;5038921;28;46777;-68
2022/04/05 07:08:14;;;;;;;;;17.25;16.25;;;;;9.55;87.85;100451.16;5057696;28;45324;-67
2022/04/05 07:10:39;;;;;;;;;21.75;19.25;;;;;9.59;87.56;100456.22;5057487;28;45348;-68
2022/04/05 07:13:07;;;;;;;;;15.00;15.00;;;;;9.62;87.21;100447.38;5057038;28;45295;-67
2022/04/05 07:15:33;;;;;;;;;17.75;15.00;;;;;9.64;87.36;100443.78;5056329;28;45643;-66
2022/04/05 07:17:58;;;;;;;;;15.50;13.50;;;;;9.67;87.01;100439.31;5057460;28;45249;-67
2022/04/05 07:20:23;;;;;;;;;17.25;15.25;;;;;9.69;87.10;100448.88;5045511;28;45287;-69
2022/04/05 07:22:49;;;;;;;;;16.00;16.00;;;;;9.69;87.21;100440.97;5038230;28;45292;-69
2022/04/05 07:25:20;;;;;;;;;21.75;19.50;;;;;9.76;87.24;100450.34;5041011;28;48268;-70
2022/04/05 07:27:46;;;;;;;;;16.25;16.25;;;;;9.81;87.27;100446.69;5057332;28;45428;-67
2022/04/05 07:30:12;;;;;;;;;17.00;17.00;;;;;9.88;87.43;100448.13;5046256;28;45352;-68
2022/04/05 07:32:39;;;;;;;;;16.75;14.25;;;;;9.99;86.86;100451.19;5056982;28;45635;-66
2022/04/05 07:35:06;;;;;;;;;15.00;15.00;;;;;10.08;86.62;100447.34;5057076;28;45363;-67
2022/04/05 07:37:31;;;;;;;;;13.75;12.00;;;;;10.14;86.32;100444.47;5053832;28;45478;-67
2022/04/05 07:39:58;;;;;;;;;17.00;15.00;;;;;10.20;86.18;100443.34;5057009;28;45484;-64
2022/04/05 07:42:24;;;;;;;;;12.25;10.75;;;;;10.22;86.11;100442.41;5055474;28;45506;-68
2022/04/05 07:44:49;;;;;;;;;13.75;12.25;;;;;10.26;85.70;100451.00;5054952;28;47267;-67
2022/04/05 07:47:15;;;;;;;;;13.50;13.00;;;;;10.27;85.99;100455.34;5056497;28;45439;-69
2022/04/05 07:49:40;;;;;;;;;16.50;14.00;;;;;10.29;85.91;100448.25;5056978;28;45997;-69
2022/04/05 07:52:06;;;;;;;;;14.75;13.50;;;;;10.34;85.78;100448.91;5057102;28;45308;-69
2022/04/05 07:54:32;;;;;;;;;14.25;13.00;;;;;10.34;85.51;100450.69;5056849;28;45325;-69
2022/04/05 07:56:58;;;;;;;;;11.25;11.25;;;;;10.41;85.91;100448.69;5038807;28;45362;-69
2022/04/05 07:59:23;;;;;;;;;10.50;10.50;;;;;10.49;85.84;100449.22;5056740;28;45455;-68
2022/04/05 08:01:49;;;;;;;;;13.75;12.50;;;;;10.51;85.23;100455.25;5057242;28;45312;-69
2022/04/05 08:04:15;;;;;;;;;16.75;13.50;;;;;10.59;86.13;100453.16;5057023;28;45307;-70
2022/04/05 08:06:40;;;;;;;;;18.00;15.00;;;;;10.64;85.62;100445.97;5056799;28;45353;-69
2022/04/05 08:09:05;;;;;;;;;13.25;13.25;;;;;10.75;85.20;100449.91;5056932;28;45242;-68
2022/04/05 08:11:34;;;;;;;;;15.75;14.25;;;;;10.84;85.53;100449.50;5056969;28;45504;-70
2022/04/05 08:13:59;;;;;;;;;15.50;15.50;;;;;10.91;84.64;100443.06;5056602;28;45477;-69
2022/04/05 08:16:25;;;;;;;;;13.50;12.50;;;;;10.96;84.54;100454.22;5055034;28;45413;-68
2022/04/05 08:18:50;;;;;;;;;14.50;13.50;;;;;10.98;84.81;100454.16;5056626;28;45403;-68
2022/04/05 08:21:18;;;;;;;;;20.00;17.00;;;;;11.00;84.42;100456.72;5056907;28;45253;-68
2022/04/05 08:23:43;;;;;;;;;13.25;11.00;;;;;11.00;84.12;100454.09;5056505;28;46162;-71
2022/04/05 08:26:08;;;;;;;;;14.50;14.50;;;;;11.01;84.02;100467.16;5036880;28;45947;-69
2022/04/05 08:28:34;;;;;;;;;16.50;13.75;;;;;10.99;83.91;100465.53;5056408;28;45403;-68
2022/04/05 08:30:59;;;;;;;;;17.00;14.25;;;;;10.99;83.93;100457.66;5056826;28;45275;-67
2022/04/05 08:33:25;;;;;;;;;15.75;15.75;;;;;11.03;84.14;100457.44;5056322;28;46265;-70
2022/04/05 08:35:50;;;;;;;;;18.25;17.00;;;;;11.06;84.68;100461.72;5056320;28;45331;-70
2022/04/05 08:38:15;;;;;;;;;19.50;19.50;;;;;11.10;84.50;100455.41;5056572;28;45456;-69
2022/04/05 08:40:42;;;;;;;;;15.00;15.00;;;;;11.11;84.30;100442.16;5056132;28;45565;-70
2022/04/05 08:43:07;;;;;;;;;15.50;13.75;;;;;11.18;85.09;100447.16;5055822;28;46117;-68
2022/04/05 08:45:35;;;;;;;;;19.75;15.25;;;;;11.24;84.46;100454.78;5055792;28;45365;-68
2022/04/05 08:48:00;;;;;;;;;19.25;17.75;;;;;11.29;84.42;100455.44;5056688;28;45358;-67
2022/04/05 08:50:29;;;;;;;;;23.50;17.50;;;;;11.35;84.29;100462.19;5056330;28;45450;-69
2022/04/05 08:52:56;;;;;;;;;15.75;11.50;;;;;11.37;84.58;100462.97;5056058;28;46200;-70
2022/04/05 08:55:22;;;;;;;;;19.25;17.00;;;;;11.39;84.55;100466.38;5055692;28;45411;-69
2022/04/05 08:57:48;;;;;;;;;17.50;16.25;;;;;11.41;84.29;100461.91;5056406;28;45371;-69
2022/04/05 09:00:23;;;;;;;;;17.50;15.75;;;;;11.46;84.06;100454.66;5055898;28;45379;-70
2022/04/05 09:03:05;;;;;;;;;17.00;15.50;;;;;11.53;83.75;100455.22;5055857;28;46979;-70
2022/04/05 09:05:37;;;;;;;;;17.00;14.50;;;;;11.59;83.83;100446.19;5054349;28;45850;-68
2022/04/05 09:08:17;;;;;;;;;19.75;17.00;;;;;11.64;83.28;100460.84;5037841;28;45352;-70
2022/04/05 09:10:45;;;;;;;;;17.50;14.75;;;;;11.63;83.39;100453.00;5055949;28;45525;-69
2022/04/05 09:13:12;;;;;;;;;18.50;17.50;;;;;11.66;83.16;100448.47;5055553;28;46633;-69
2022/04/05 09:15:39;;;;;;;;;16.25;16.25;;;;;11.68;83.09;100451.88;5055857;28;45328;-69
2022/04/05 09:18:05;;;;;;;;;16.50;16.50;;;;;11.73;83.11;100454.31;5055820;28;45259;-68
2022/04/05 09:20:42;;;;;;;;;17.75;16.50;;;;;11.74;83.12;100450.75;5037898;28;45750;-68
2022/04/05 09:23:30;;;;;;;;;14.50;13.75;;;;;11.74;83.01;100452.50;5055562;28;45423;-69
2022/04/05 09:26:01;;;;;;;;;16.50;14.75;;;;;11.73;82.48;100456.09;5037191;28;45449;-68
2022/04/05 09:28:50;;;;;;;;;20.50;16.25;;;;;11.73;82.56;100442.91;5055491;28;45392;-68
2022/04/05 09:31:17;;;;;;;;;16.25;15.25;;;;;11.75;82.74;100455.09;5055459;28;45432;-69
2022/04/05 09:34:01;;;;;;;;;14.50;14.50;;;;;11.74;82.17;100461.28;5055181;28;46092;-67
2022/04/05 09:36:39;;;;;;;;;18.25;18.25;;;;;11.75;82.69;100455.09;5055106;28;45311;-68
2022/04/05 09:39:11;;;;;;;;;17.25;15.00;;;;;11.77;82.87;100465.53;5055635;28;45235;-68
2022/04/05 09:41:37;;;;;;;;;22.50;20.75;;;;;11.82;83.41;100466.19;5054028;28;45546;-68
2022/04/05 09:44:02;;;;;;;;;21.75;21.00;;;;;11.83;82.97;100470.53;5055688;28;45370;-70
2022/04/05 09:46:29;;;;;;;;;21.50;18.50;;;;;11.87;82.85;100471.25;5055153;28;45249;-70
2022/04/05 09:49:12;;;;;;;;;12.50;11.50;;;;;11.89;82.34;100472.03;5055444;28;45170;-71
2022/04/05 09:51:45;;;;;;;;;19.75;17.25;;;;;11.92;82.80;100467.44;5055369;28;45526;-72
2022/04/05 09:54:27;;;;;;;;;24.25;18.75;;;;;11.92;82.64;100459.53;5055060;28;45356;-69
2022/04/05 09:57:03;;;;;;;;;25.00;20.00;;;;;12.00;82.97;100467.13;5037282;28;45624;-70
2022/04/05 09:59:40;;;;;;;;;16.50;15.25;;;;;12.06;82.13;100463.31;5055016;28;45787;-69
2022/04/05 10:02:17;;;;;;;;;16.25;16.25;;;;;12.09;82.47;100464.06;5055183;28;45350;-70
2022/04/05 10:05:05;;;;;;;;;17.50;16.50;;;;;12.14;82.33;100463.81;5036469;28;46290;-71
2022/04/05 10:07:31;;;;;;;;;20.50;19.75;;;;;12.15;82.44;100464.69;5054897;28;45265;-71
2022/04/05 10:10:03;;;;;;;;;21.25;18.25;;;;;12.15;82.59;100456.78;5054866;28;45349;-70
2022/04/05 10:12:28;;;;;;;;;24.25;20.00;;;;;12.17;82.51;100460.19;5054846;28;45583;-69
2022/04/05 10:14:55;;;;;;;;;19.75;17.25;;;;;12.19;82.61;100456.53;5055140;28;46697;-70
2022/04/05 10:17:26;;;;;;;;;19.00;15.50;;;;;12.22;82.46;100452.91;5055135;28;45323;-69
2022/04/05 10:19:53;;;;;;;;;19.50;14.75;;;;;12.23;81.92;100457.25;5055244;28;45354;-70
2022/04/05 10:22:22;;;;;;;;;17.00;15.00;;;;;12.22;81.72;100458.19;5054957;28;45155;-70
2022/04/05 10:24:52;;;;;;;;;21.25;19.75;;;;;12.18;82.55;100464.53;5054515;28;47142;-69
2022/04/05 10:27:18;;;;;;;;;19.75;14.75;;;;;12.15;82.17;100460.25;5054089;28;45369;-70
2022/04/05 10:29:44;;;;;;;;;17.50;16.50;;;;;12.12;81.88;100463.91;5054696;28;45371;-68
2022/04/05 10:32:24;;;;;;;;;14.75;14.75;;;;;12.13;82.29;100467.38;5054406;28;45524;-70
2022/04/05 10:35:02;;;;;;;;;22.75;21.00;;;;;12.12;82.03;100463.91;5054044;28;45687;-69
2022/04/05 10:37:32;;;;;;;;;27.50;20.75;;;;;12.15;82.08;100465.53;5053936;28;45379;-69
2022/04/05 10:39:58;;;;;;;;;27.50;19.25;;;;;12.16;82.17;100455.84;5054497;28;45442;-69
2022/04/05 10:42:25;;;;;;;;;18.75;15.75;;;;;12.19;81.76;100458.31;5054786;28;45428;-69
2022/04/05 10:45:08;;;;;;;;;20.00;20.00;;;;;12.20;81.76;100460.91;5054521;28;46075;-69
2022/04/05 10:47:57;;;;;;;;;20.25;17.25;;;;;12.24;81.89;100457.19;5054285;28;45421;-71
2022/04/05 10:50:23;;;;;;;;;14.75;14.50;;;;;12.30;81.58;100455.16;5057381;28;45437;-70
2022/04/05 10:53:10;;;;;;;;;16.25;14.50;;;;;12.36;81.71;100447.78;5058106;28;45277;-69
2022/04/05 10:56:10;;;;;;;;;15.50;14.00;;;;;12.41;80.95;100450.22;5042172;28;46256;-70
2022/04/05 10:58:37;;;;;;;;;16.25;15.00;;;;;12.44;81.37;100441.28;5020100;28;45527;-68
2022/04/05 11:01:17;;;;;;;;;15.00;13.00;;;;;12.48;80.80;100446.34;5057575;28;45369;-70
2022/04/05 11:04:03;;;;;;;;;10.50;9.25;;;;;12.51;80.25;100440.91;5057997;28;45338;-71
2022/04/05 11:06:28;;;;;;;;;13.75;12.00;;;;;12.55;80.31;100433.66;5057104;28;46989;-69
2022/04/05 11:08:53;;;;;;;;;13.50;13.00;;;;;12.57;79.91;100435.31;5039259;28;45445;-69
2022/04/05 11:11:20;;;;;;;;;13.50;13.50;;;;;12.59;80.06;100437.88;5057422;28;45395;-68
2022/04/05 11:13:46;;;;;;;;;13.50;12.25;;;;;12.66;80.04;100439.25;5057587;28;45525;-70
2022/04/05 11:16:13;;;;;;;;;20.00;17.00;;;;;12.69;79.70;100446.19;5057131;28;46461;-69